NCAR-RAP Real-Time Weather Data

Output produced by METARs form (17 October 2018  15:35 UTC)
found at http://weather.rap.ucar.edu/surface/
 
RJEC 171100Z 19004KT 160V230 9999 FEW015 SCT030 BKN050 05/04 Q1013
RJEC 171000Z 19003KT 9999 FEW015 SCT025 BKN040 06/05 Q1013
RJEC 170900Z 16003KT 9999 FEW015 SCT025 BKN040 06/04 Q1013
RJEC 170800Z VRB02KT 9999 -SHRA FEW015 SCT025 BKN040 08/05 Q1012
RJEC 170700Z VRB02KT 9999 FEW015 SCT025 BKN040 08/05 Q1012
RJEC 170600Z 30011KT 9999 -SHRA FEW010 SCT020 BKN040 08/05 Q1011
RJEC 170500Z 28006KT 230V310 9999 -SHRA FEW015 SCT025 BKN045 10/04 Q1011
RJEC 170400Z 27009KT 230V290 9999 VCSH FEW015 SCT025 BKN045 09/04 Q1011
RJEC 170300Z 34012KT 9999 -SHRA FEW015 SCT025 BKN040 08/05 Q1011
RJEC 170200Z 17005KT 130V220 9999 FEW015 SCT030 BKN060 10/04 Q1011
RJEC 170100Z 32010KT 9999 -SHRA FEW010 SCT030 BKN040 08/03 Q1011
RJEC 170000Z 21006KT 140V260 9999 FEW005 SCT050 BKN060 09/02 Q1011
RJEC 162300Z 17008KT 9999 FEW005 BKN050 07/04 Q1011
RJEC 162200Z 17007KT 9999 FEW001 SCT040 05/03 Q1011
RJEC 162140Z 17008KT 9999 FEW001 SCT040 04/03 Q1011 RMK 1ST001 4CU040 A2986
RJEC 161122Z 22007KT 190V250 9999 -SHRA FEW008 SCT020 BKN040 08/06 Q1011 RMK 1ST008 3CU020 6CU040 A2986
RJEC 161109Z 25008KT 210V300 9999 SHRA FEW008 SCT015 BKN030 08/06 Q1011 RMK 1ST008 3ST015 6CU030 A2986
RJEC 161100Z 30006KT 260V330 9999 -SHRA FEW008 SCT015 BKN030 08/06 Q1011
RJEC 161000Z 16008KT 9999 FEW020 SCT035 BKN120 08/06 Q1011
RJEC 160900Z 17012KT 9999 -SHRA FEW020 SCT040 BKN080 10/07 Q1010
RJEC 160800Z 16007KT 9999 FEW020 SCT040 BKN100 10/07 Q1010
RJEC 160700Z 23005KT 190V270 9999 FEW025 SCT045 13/02 Q1010
RJEC 160600Z 26008KT 210V290 9999 FEW025 BKN050 15/04 Q1010
RJEC 160500Z 21009KT 9999 FEW025 SCT050 15/03 Q1010
RJEC 160400Z VRB02KT 9999 FEW030 SCT060 14/05 Q1010
RJEC 160300Z 32004KT 230V010 9999 FEW025 SCT035 14/07 Q1011
RJEC 160200Z 31007KT 280V350 9999 FEW020 SCT030 BKN060 13/07 Q1012
RJEC 160100Z 27006KT 9999 -SHRA FEW015 SCT025 BKN060 12/07 Q1013
RJEC 160000Z 17004KT 130V200 9999 FEW003 SCT025 BKN060 12/10 Q1013
RJEC 152300Z 18005KT 9999 FEW003 SCT025 BKN060 11/10 Q1014
RJEC 152200Z 15004KT 9999 FEW002 SCT025 BKN060 09/09 Q1013
RJEC 152140Z 16003KT 9999 FEW002 SCT020 BKN060 09/08 Q1013 RMK 1ST002 3CU020 6CU060 A2994
RJEC 151100Z 15007KT 9999 FEW015 SCT035 BKN060 12/08 Q1015
RJEC 151000Z 15006KT 130V200 9999 -SHRA FEW015 SCT050 BKN060 13/09 Q1015
RJEC 150900Z VRB02KT 9999 FEW015 SCT035 BKN050 13/09 Q1015
RJEC 150800Z 26004KT 230V310 9999 FEW020 BKN050 BKN060 14/08 Q1015
RJEC 150700Z 23004KT 9999 FEW030 BKN060 BKN080 15/08 Q1015
RJEC 150600Z 25004KT 190V320 9999 FEW030 BKN060 16/08 Q1015
RJEC 150500Z 20005KT 9999 FEW030 BKN050 15/08 Q1015
RJEC 150400Z 17008KT 9999 FEW030 BKN050 16/09 Q1015